Aérodrome :
LOGIN :

S'inscrire | Disclaimer

   EN    FR    IT 

 










Légende :    VFR   VFR Marginal   IFR   IFR Intensif   IFR Très Intensif
Visi : 
Plafond : 
>= 8 km
>= 3000ft
5 à 8 km
1000 à 3000 ft
1500m à 5 km
500 à 1000 ft
800 à 1500m
200 à 500 ft
< 800m
< 200 ft
Symboles :   Orages  Brouillard  Fortes neiges  Fortes précipitations  Vent > 20 kt
SIGMETs :   Divers  Orages  Givrage  Turbulence  Onde Orograph.  Cendres Volcan.






- Altitude de l'aérodrome : 42 ft
- Code IATA : KGD


UMKK - Khrabrava - Kaliningrad

DERNIER METAR :
  • 281300Z 17004MPS 130V210 CAVOK 13/07 Q1011 R24/CLRD95 NOSIG RMK QFE757/1009

METARs EXPIRÉS :
  • 281230Z 17005MPS 130V200 CAVOK 14/07 Q1011 R24/19//95 NOSIG RMK QFE757/1010
  • 281200Z 17005MPS 140V200 CAVOK 13/07 Q1011 R24/19//95 NOSIG RMK QFE757/1010
  • 281130Z 17004MPS 140V210 CAVOK 13/08 Q1011 R24/19//95 NOSIG RMK QFE757/1010
  • 281100Z 17005MPS 140V220 CAVOK 13/08 Q1011 R24/19//95 NOSIG RMK QFE757/1010

TAF TAF UMKK
Valide du 28 à 12h jusqu'au 29 à 12h UTC


281056Z 2812/2912 18003G08MPS 9999 SCT020
BECMG 2815/2817 19003G08MPS SCT011
TEMPO 2817/2822 -SHRA BKN016CB
FM282200 20003MPS 3100 BR BKN011
TEMPO 2900/2909 -SHRA BKN005 BKN016CB
FM290900 19003G08MPS 9999 BKN016



MET'MAP, la Météo Aéronautique d'un coup d'oeil ! - Copyright ORBIFLY Décembre 2007 - Disclaimer

ORBIFLY MET'MAP TEAM :

Programmation & Développement : Alexandra Zaïnal
Sur une idée originale de : Baudouin d'Aumeries
Assistance à la programmation : Marc-Olivier Méhu
Soutien technique & logistique : Manuel Goepfert

Contact : metmap@orbifly.com




SOURCES & CREDITS :

   NOAA